Aviation Digital Data Service (ADDS)

Output produced by METARs form (1301 UTC 10 July 2020)
found at http://www.aviationweather.gov/metar/data/
 
METAR text: RJTU 100823Z VRB01KT 9999 FEW015 BKN035 BKN140 26/23 Q1011 RMK 1CU015 5CU035 5AC140 A2986
Conditions at: RJTU (UTSUNOMIYA (JGSD, JP) observed 0823 UTC 10 July 2020
Temperature: 26.0°C (79°F)
Dewpoint: 23.0°C (73°F) [RH = 84%]
Pressure (altimeter): 29.85 inches Hg (1011.0 mb)
Winds: variable direction winds at 1 MPH (1 knots; 0.5 m/s)
Visibility: 6 or more miles (10+ km)
Ceiling: 3500 feet AGL
Clouds: few clouds at 1500 feet AGL
broken clouds at 3500 feet AGL
broken clouds at 14000 feet AGL
Weather: no significant weather observed at this time

METAR text: RJTU 100722Z 24003KT 9999 -SHRA FEW015 SCT030 BKN040 26/23 Q1011 RMK 1CU015 3CU030 5SC040 A2987
Conditions at: RJTU (UTSUNOMIYA (JGSD, JP) observed 0722 UTC 10 July 2020
Temperature: 26.0°C (79°F)
Dewpoint: 23.0°C (73°F) [RH = 84%]
Pressure (altimeter): 29.85 inches Hg (1011.0 mb)
Winds: from the WSW (240 degrees) at 3 MPH (3 knots; 1.5 m/s)
Visibility: 6 or more miles (10+ km)
Ceiling: 4000 feet AGL
Clouds: few clouds at 1500 feet AGL
scattered clouds at 3000 feet AGL
broken clouds at 4000 feet AGL
Weather: -SHRA  (light rain showers)

METAR text: RJTU 100616Z 24004KT 190V290 9999 -SHRA FEW015 BKN020 BKN130 26/23 Q1011 RMK 2CU015 5CU020 7AC130 A2988
Conditions at: RJTU (UTSUNOMIYA (JGSD, JP) observed 0616 UTC 10 July 2020
Temperature: 26.0°C (79°F)
Dewpoint: 23.0°C (73°F) [RH = 84%]
Pressure (altimeter): 29.85 inches Hg (1011.0 mb)
Winds: from the WSW (240 degrees) at 5 MPH (4 knots; 2.1 m/s)
Visibility: 6 or more miles (10+ km)
Ceiling: 2000 feet AGL
Clouds: few clouds at 1500 feet AGL
broken clouds at 2000 feet AGL
broken clouds at 13000 feet AGL
Weather: -SHRA  (light rain showers)

METAR text: RJTU 100337Z 18004KT 9999 -SHRA FEW010 BKN015 BKN080 25/23 Q1012 RMK 1CU010 5CU015 7AC080 A2990
Conditions at: RJTU (UTSUNOMIYA (JGSD, JP) observed 0337 UTC 10 July 2020
Temperature: 25.0°C (77°F)
Dewpoint: 23.0°C (73°F) [RH = 89%]
Pressure (altimeter): 29.88 inches Hg (1012.0 mb)
Winds: from the S (180 degrees) at 5 MPH (4 knots; 2.1 m/s)
Visibility: 6 or more miles (10+ km)
Ceiling: 1500 feet AGL
Clouds: few clouds at 1000 feet AGL
broken clouds at 1500 feet AGL
broken clouds at 8000 feet AGL
Weather: -SHRA  (light rain showers)

METAR text: RJTU 100236Z 16005KT 9999 -SHRA FEW010 SCT015 BKN080 26/23 Q1013 RMK 1CU010 4CU015 7AC080 A2991
Conditions at: RJTU (UTSUNOMIYA (JGSD, JP) observed 0236 UTC 10 July 2020
Temperature: 26.0°C (79°F)
Dewpoint: 23.0°C (73°F) [RH = 84%]
Pressure (altimeter): 29.91 inches Hg (1013.0 mb)
Winds: from the SSE (160 degrees) at 6 MPH (5 knots; 2.6 m/s)
Visibility: 6 or more miles (10+ km)
Ceiling: 8000 feet AGL
Clouds: few clouds at 1000 feet AGL
scattered clouds at 1500 feet AGL
broken clouds at 8000 feet AGL
Weather: -SHRA  (light rain showers)

METAR text: RJTU 092310Z VRB01KT 9999 -SHRA FEW008 BKN010 BKN080 24/22 Q1013 RMK 1ST008 5CU010 7AC080 A2993
Conditions at: RJTU (UTSUNOMIYA (JGSD, JP) observed 2310 UTC 09 July 2020
Temperature: 24.0°C (75°F)
Dewpoint: 22.0°C (72°F) [RH = 89%]
Pressure (altimeter): 29.91 inches Hg (1013.0 mb)
Winds: variable direction winds at 1 MPH (1 knots; 0.5 m/s)
Visibility: 6 or more miles (10+ km)
Ceiling: 1000 feet AGL
Clouds: few clouds at 800 feet AGL
broken clouds at 1000 feet AGL
broken clouds at 8000 feet AGL
Weather: -SHRA  (light rain showers)

METAR text: RJTU 092115Z VRB02KT 7000 -SHRA FEW005 BKN010 BKN020 23/22 Q1012 RMK 2ST005 6CU010 7SC020 A2991
Conditions at: RJTU (UTSUNOMIYA (JGSD, JP) observed 2115 UTC 09 July 2020
Temperature: 23.0°C (73°F)
Dewpoint: 22.0°C (72°F) [RH = 94%]
Pressure (altimeter): 29.88 inches Hg (1012.0 mb)
Winds: variable direction winds at 2 MPH (2 knots; 1.0 m/s)
Visibility: 4 miles ( 7 km)
Ceiling: 1000 feet AGL
Clouds: few clouds at 500 feet AGL
broken clouds at 1000 feet AGL
broken clouds at 2000 feet AGL
Weather: -SHRA  (light rain showers)

METAR text: RJTU 090731Z 21004KT 9999 -SHRA FEW015 SCT025 BKN130 26/22 Q1010 RMK 1CU015 3CU025 7AC130 A2982
Conditions at: RJTU (UTSUNOMIYA (JGSD, JP) observed 0731 UTC 09 July 2020
Temperature: 26.0°C (79°F)
Dewpoint: 22.0°C (72°F) [RH = 79%]
Pressure (altimeter): 29.82 inches Hg (1010.0 mb)
Winds: from the SSW (210 degrees) at 5 MPH (4 knots; 2.1 m/s)
Visibility: 6 or more miles (10+ km)
Ceiling: 13000 feet AGL
Clouds: few clouds at 1500 feet AGL
scattered clouds at 2500 feet AGL
broken clouds at 13000 feet AGL
Weather: -SHRA  (light rain showers)

METAR text: RJTU 090147Z 22004KT 170V270 9999 -SHRA FEW007 SCT015 BKN020 25/22 Q1010 RMK 1ST007 3CU015 5CU020 A2982
Conditions at: RJTU (UTSUNOMIYA (JGSD, JP) observed 0147 UTC 09 July 2020
Temperature: 25.0°C (77°F)
Dewpoint: 22.0°C (72°F) [RH = 83%]
Pressure (altimeter): 29.82 inches Hg (1010.0 mb)
Winds: from the SW (220 degrees) at 5 MPH (4 knots; 2.1 m/s)
Visibility: 6 or more miles (10+ km)
Ceiling: 2000 feet AGL
Clouds: few clouds at 700 feet AGL
scattered clouds at 1500 feet AGL
broken clouds at 2000 feet AGL
Weather: -SHRA  (light rain showers)

METAR text: RJTU 090117Z 20005KT 130V250 9999 FEW007 BKN012 BKN050 26/23 Q1010 RMK 1ST007 5CU012 5SC050 A2982
Conditions at: RJTU (UTSUNOMIYA (JGSD, JP) observed 0117 UTC 09 July 2020
Temperature: 26.0°C (79°F)
Dewpoint: 23.0°C (73°F) [RH = 84%]
Pressure (altimeter): 29.82 inches Hg (1010.0 mb)
Winds: from the SSW (200 degrees) at 6 MPH (5 knots; 2.6 m/s)
Visibility: 6 or more miles (10+ km)
Ceiling: 1200 feet AGL
Clouds: few clouds at 700 feet AGL
broken clouds at 1200 feet AGL
broken clouds at 5000 feet AGL
Weather: no significant weather observed at this time